Time;durP1;ratioP1;P1;durP2;ratioP2;P2;SDS_P1;SDS_P2;PMS_P1;PMS_P2;Temp;Humidity;BMP_temperature;BMP_pressure;BME280_temperature;BME280_humidity;BME280_pressure;Samples;Min_cycle;Max_cycle;Signal;HPM_P1;HPM_P2
2024/02/18 00:03:24;;;;;;;13.25;8.30;;;;;;;;;;10305061;28;20398;-60
2024/02/18 00:08:25;;;;;;;12.30;7.95;;;;;;;;;;10281844;28;20035;-60
2024/02/18 00:13:26;;;;;;;13.73;8.63;;;;;;;;;;10310272;28;20026;-60
2024/02/18 00:18:27;;;;;;;12.52;7.95;;;;;;;;;;10295826;28;20113;-60
2024/02/18 00:23:28;;;;;;;11.73;8.98;;;;;;;;;;10293588;28;20050;-60
2024/02/18 00:28:30;;;;;;;11.35;8.13;;;;;;;;;;10288826;28;20438;-60
2024/02/18 00:33:31;;;;;;;10.32;8.38;;;;;;;;;;10283030;28;20030;-60
2024/02/18 00:38:32;;;;;;;11.07;8.27;;;;;;;;;;10291765;28;20078;-60
2024/02/18 00:43:33;;;;;;;11.45;7.68;;;;;;;;;;10283893;28;20093;-60
2024/02/18 00:48:35;;;;;;;10.45;8.32;;;;;;;;;;10286294;28;20026;-60
2024/02/18 00:53:36;;;;;;;9.82;7.50;;;;;;;;;;10291569;28;20101;-60
2024/02/18 00:58:36;;;;;;;11.82;8.43;;;;;;;;;;10279115;28;20054;-60
2024/02/18 01:03:37;;;;;;;13.13;8.35;;;;;;;;;;10264562;28;20038;-60
2024/02/18 01:08:37;;;;;;;12.82;8.00;;;;;;;;;;10275239;28;20041;-60
2024/02/18 01:13:38;;;;;;;9.77;7.85;;;;;;;;;;10268519;28;20078;-60
2024/02/18 01:18:42;;;;;;;16.95;8.73;;;;;;;;;;10277759;28;20039;-60
2024/02/18 01:23:43;;;;;;;12.95;9.13;;;;;;;;;;10273243;28;20081;-59
2024/02/18 01:28:43;;;;;;;16.20;8.60;;;;;;;;;;10279568;28;20499;-59
2024/02/18 01:33:45;;;;;;;15.77;8.63;;;;;;;;;;10270767;28;20027;-60
2024/02/18 01:38:46;;;;;;;10.18;8.00;;;;;;;;;;10271749;28;20171;-61
2024/02/18 01:43:47;;;;;;;11.55;8.57;;;;;;;;;;10272311;28;20066;-60
2024/02/18 01:48:49;;;;;;;12.98;8.50;;;;;;;;;;10281469;28;20106;-61
2024/02/18 01:53:51;;;;;;;11.45;8.10;;;;;;;;;;10283286;28;20066;-61
2024/02/18 01:58:52;;;;;;;12.48;8.88;;;;;;;;;;10260994;28;20058;-60
2024/02/18 02:03:55;;;;;;;12.90;8.07;;;;;;;;;;10276938;28;20041;-60
2024/02/18 02:08:59;;;;;;;13.10;8.93;;;;;;;;;;10282147;28;20130;-60
2024/02/18 02:14:01;;;;;;;15.13;8.55;;;;;;;;;;10284483;28;20062;-59
2024/02/18 02:19:02;;;;;;;10.52;7.53;;;;;;;;;;10272217;28;20129;-60
2024/02/18 02:24:03;;;;;;;11.80;8.32;;;;;;;;;;10284888;28;20034;-59
2024/02/18 02:29:11;;;;;;;11.13;8.30;;;;;;;;;;10290618;28;20035;-60
2024/02/18 02:34:13;;;;;;;9.75;7.60;;;;;;;;;;10290436;28;20070;-60
2024/02/18 02:39:13;;;;;;;10.55;8.02;;;;;;;;;;10283257;28;20390;-60
2024/02/18 02:44:14;;;;;;;8.27;7.07;;;;;;;;;;10288282;28;20023;-60
2024/02/18 02:49:15;;;;;;;13.73;8.23;;;;;;;;;;10288780;28;20031;-59
2024/02/18 02:54:15;;;;;;;9.75;7.70;;;;;;;;;;10285907;28;20238;-59
2024/02/18 02:59:16;;;;;;;10.90;8.00;;;;;;;;;;10289896;28;20046;-60
2024/02/18 03:04:17;;;;;;;10.98;8.27;;;;;;;;;;10283352;28;20043;-60
2024/02/18 03:09:18;;;;;;;12.32;8.48;;;;;;;;;;10285693;28;20039;-60
2024/02/18 03:14:19;;;;;;;9.10;7.75;;;;;;;;;;10286193;28;20065;-60
2024/02/18 03:19:19;;;;;;;10.70;8.35;;;;;;;;;;10285317;28;20448;-60
2024/02/18 03:24:20;;;;;;;9.30;7.53;;;;;;;;;;10286142;28;20027;-60
2024/02/18 03:29:20;;;;;;;8.57;7.38;;;;;;;;;;10287778;28;20030;-60
2024/02/18 03:34:21;;;;;;;10.93;7.70;;;;;;;;;;10283721;28;20042;-60
2024/02/18 03:39:22;;;;;;;11.52;7.80;;;;;;;;;;10283578;28;20054;-60
2024/02/18 03:44:22;;;;;;;10.95;7.47;;;;;;;;;;10287623;28;20038;-60
2024/02/18 03:49:23;;;;;;;8.52;7.10;;;;;;;;;;10287479;28;20038;-60
2024/02/18 03:54:24;;;;;;;9.55;7.47;;;;;;;;;;10280709;28;20026;-60
2024/02/18 03:59:25;;;;;;;11.23;7.95;;;;;;;;;;10278906;28;20106;-60
2024/02/18 04:04:26;;;;;;;12.40;7.68;;;;;;;;;;10281128;28;20027;-60
2024/02/18 04:09:26;;;;;;;8.95;6.78;;;;;;;;;;10280185;28;20026;-60
2024/02/18 04:14:27;;;;;;;9.35;7.20;;;;;;;;;;10279849;28;20085;-60
2024/02/18 04:19:28;;;;;;;9.65;7.45;;;;;;;;;;10284455;28;20592;-60
2024/02/18 04:24:29;;;;;;;10.45;7.93;;;;;;;;;;10285167;28;20034;-60
2024/02/18 04:29:29;;;;;;;9.65;7.93;;;;;;;;;;10285211;28;20042;-60
2024/02/18 04:34:30;;;;;;;10.05;7.32;;;;;;;;;;10278805;28;20509;-60
2024/02/18 04:39:30;;;;;;;12.77;7.47;;;;;;;;;;10285844;28;20046;-60
2024/02/18 04:44:31;;;;;;;13.23;7.82;;;;;;;;;;10285766;28;20038;-60
2024/02/18 04:49:31;;;;;;;12.32;7.93;;;;;;;;;;10284766;28;20022;-60
2024/02/18 04:54:35;;;;;;;8.77;7.50;;;;;;;;;;10265913;28;20058;-60
2024/02/18 04:59:35;;;;;;;10.68;7.57;;;;;;;;;;10281761;28;20035;-60
2024/02/18 05:04:36;;;;;;;10.68;7.40;;;;;;;;;;10272824;28;20039;-61
2024/02/18 05:09:40;;;;;;;9.35;7.20;;;;;;;;;;10279289;28;20035;-61
2024/02/18 05:14:40;;;;;;;10.75;7.53;;;;;;;;;;10284154;28;20073;-61
2024/02/18 05:19:42;;;;;;;9.05;7.30;;;;;;;;;;10297778;28;20390;-60
2024/02/18 05:24:43;;;;;;;9.90;7.72;;;;;;;;;;10280149;28;20045;-59
2024/02/18 05:29:43;;;;;;;10.30;7.18;;;;;;;;;;10280887;28;20031;-61
2024/02/18 05:34:44;;;;;;;8.90;7.38;;;;;;;;;;10280746;28;20178;-64
2024/02/18 05:39:44;;;;;;;13.27;8.05;;;;;;;;;;10281806;28;20039;-61
2024/02/18 05:44:46;;;;;;;10.40;7.55;;;;;;;;;;10279063;28;20035;-59
2024/02/18 05:49:46;;;;;;;11.10;7.55;;;;;;;;;;10282033;28;20039;-59
2024/02/18 05:54:47;;;;;;;10.05;7.25;;;;;;;;;;10283067;28;20034;-59
2024/02/18 05:59:47;;;;;;;10.02;7.32;;;;;;;;;;10284760;28;20089;-59
2024/02/18 06:04:48;;;;;;;9.65;7.60;;;;;;;;;;10269078;28;20030;-59
2024/02/18 06:09:49;;;;;;;8.32;7.43;;;;;;;;;;10288805;28;20022;-59
2024/02/18 06:14:49;;;;;;;9.85;7.20;;;;;;;;;;10287892;28;20082;-60
2024/02/18 06:19:50;;;;;;;8.27;6.97;;;;;;;;;;10284954;28;20035;-60
2024/02/18 06:24:50;;;;;;;7.82;6.85;;;;;;;;;;10284248;28;20085;-60
2024/02/18 06:29:51;;;;;;;10.50;7.32;;;;;;;;;;10286799;28;20058;-60
2024/02/18 06:34:51;;;;;;;9.70;7.13;;;;;;;;;;10288849;28;20078;-59
2024/02/18 06:39:52;;;;;;;8.55;6.93;;;;;;;;;;10278758;28;20047;-60
2024/02/18 06:44:52;;;;;;;8.68;7.68;;;;;;;;;;10285827;28;20426;-60
2024/02/18 06:49:53;;;;;;;8.65;7.03;;;;;;;;;;10285856;28;20054;-61
2024/02/18 06:54:54;;;;;;;9.30;7.50;;;;;;;;;;10288817;28;20027;-60
2024/02/18 06:59:55;;;;;;;8.93;7.05;;;;;;;;;;10278496;28;20383;-60
2024/02/18 07:04:56;;;;;;;8.40;7.38;;;;;;;;;;10275573;28;20054;-60
2024/02/18 07:09:57;;;;;;;8.98;7.10;;;;;;;;;;10284476;28;20371;-60
2024/02/18 07:14:58;;;;;;;10.82;7.82;;;;;;;;;;10286505;28;20549;-60
2024/02/18 07:19:58;;;;;;;8.98;6.65;;;;;;;;;;10284943;28;20139;-61
2024/02/18 07:24:59;;;;;;;7.68;6.53;;;;;;;;;;10283898;28;20046;-60
2024/02/18 07:30:00;;;;;;;10.45;6.53;;;;;;;;;;10286812;28;20031;-60
2024/02/18 07:35:01;;;;;;;9.43;6.75;;;;;;;;;;10286815;28;20033;-60
2024/02/18 07:40:01;;;;;;;7.25;6.50;;;;;;;;;;10286917;28;20046;-59
2024/02/18 07:45:02;;;;;;;10.23;6.82;;;;;;;;;;10281813;28;20050;-60
2024/02/18 07:50:03;;;;;;;8.38;6.75;;;;;;;;;;10289781;28;20055;-61
2024/02/18 07:55:04;;;;;;;10.05;6.68;;;;;;;;;;10286631;28;20486;-59
2024/02/18 08:00:06;;;;;;;7.72;6.40;;;;;;;;;;10279324;28;20383;-59
2024/02/18 08:05:10;;;;;;;11.38;7.35;;;;;;;;;;10279936;28;20043;-60
2024/02/18 08:10:11;;;;;;;8.77;7.03;;;;;;;;;;10279713;28;20035;-60
2024/02/18 08:15:11;;;;;;;8.73;6.95;;;;;;;;;;10285481;28;20390;-62
2024/02/18 08:20:12;;;;;;;8.23;6.35;;;;;;;;;;10282367;28;20038;-61
2024/02/18 08:25:12;;;;;;;10.93;7.63;;;;;;;;;;10269700;28;20041;-61
2024/02/18 08:30:14;;;;;;;6.85;6.15;;;;;;;;;;10283730;28;20380;-61
2024/02/18 08:35:14;;;;;;;10.43;7.00;;;;;;;;;;10283234;28;20405;-60
2024/02/18 08:40:18;;;;;;;7.30;6.03;;;;;;;;;;10281847;28;20054;-60
2024/02/18 08:45:18;;;;;;;8.10;6.40;;;;;;;;;;10281721;28;20042;-59
2024/02/18 08:50:19;;;;;;;10.15;6.55;;;;;;;;;;10283805;28;20163;-59
2024/02/18 08:55:19;;;;;;;10.40;6.82;;;;;;;;;;10280604;28;20038;-59
2024/02/18 09:00:20;;;;;;;9.02;6.35;;;;;;;;;;10279486;28;20035;-59
2024/02/18 09:05:22;;;;;;;7.10;6.40;;;;;;;;;;10265884;28;20046;-60
2024/02/18 09:10:23;;;;;;;8.43;6.40;;;;;;;;;;10272519;28;20035;-59
2024/02/18 09:15:23;;;;;;;7.50;6.03;;;;;;;;;;10267074;28;20023;-60
2024/02/18 09:20:25;;;;;;;7.90;6.53;;;;;;;;;;10277266;28;20027;-60
2024/02/18 09:25:25;;;;;;;8.32;6.65;;;;;;;;;;10271247;28;22409;-60
2024/02/18 09:30:26;;;;;;;7.53;6.40;;;;;;;;;;10273216;28;20031;-60
2024/02/18 09:35:27;;;;;;;9.20;6.50;;;;;;;;;;10286597;28;20026;-60
2024/02/18 09:40:28;;;;;;;6.88;5.45;;;;;;;;;;10291943;28;20538;-60
2024/02/18 09:45:32;;;;;;;12.35;6.18;;;;;;;;;;10288457;28;20031;-60
2024/02/18 09:50:35;;;;;;;15.55;8.80;;;;;;;;;;10288084;28;20066;-59
2024/02/18 09:55:38;;;;;;;10.77;8.00;;;;;;;;;;10286106;28;20031;-59
2024/02/18 10:00:38;;;;;;;12.13;8.18;;;;;;;;;;10287485;28;20034;-59
2024/02/18 10:05:39;;;;;;;11.02;8.25;;;;;;;;;;10309216;28;20033;-59
2024/02/18 10:10:39;;;;;;;19.27;8.50;;;;;;;;;;10291613;28;20434;-58
2024/02/18 10:15:41;;;;;;;13.07;9.20;;;;;;;;;;10295292;28;20058;-59
2024/02/18 10:20:42;;;;;;;20.83;9.40;;;;;;;;;;10286703;28;21512;-59
2024/02/18 10:25:46;;;;;;;37.40;10.07;;;;;;;;;;10288001;28;20039;-59
2024/02/18 10:30:48;;;;;;;22.98;9.52;;;;;;;;;;10277163;28;20078;-59
2024/02/18 10:35:52;;;;;;;14.32;9.77;;;;;;;;;;10279536;28;20121;-59
2024/02/18 10:41:06;;;;;;;27.88;10.63;;;;;;;;;;10288523;28;20060;-59
2024/02/18 10:46:07;;;;;;;27.42;9.70;;;;;;;;;;10289010;28;20037;-59
2024/02/18 10:51:09;;;;;;;22.65;9.75;;;;;;;;;;10287530;28;20077;-59
2024/02/18 10:56:15;;;;;;;24.17;9.82;;;;;;;;;;10288061;28;20046;-60
2024/02/18 11:01:20;;;;;;;24.55;9.98;;;;;;;;;;10286359;28;20034;-59
2024/02/18 11:06:21;;;;;;;20.20;10.15;;;;;;;;;;10284340;28;20402;-60
2024/02/18 11:11:23;;;;;;;18.88;9.63;;;;;;;;;;10268043;28;20634;-60
2024/02/18 11:16:26;;;;;;;26.83;10.00;;;;;;;;;;10281130;28;20414;-60
2024/02/18 11:21:28;;;;;;;17.48;9.65;;;;;;;;;;10288482;28;20479;-59
2024/02/18 11:26:29;;;;;;;22.10;9.35;;;;;;;;;;10282831;28;20042;-59
2024/02/18 11:31:30;;;;;;;13.35;9.02;;;;;;;;;;10301970;28;20030;-59
2024/02/18 11:36:31;;;;;;;20.02;9.38;;;;;;;;;;10293206;23;20137;-67
2024/02/18 11:41:34;;;;;;;14.45;8.65;;;;;;;;;;10279635;28;20382;-57
2024/02/18 11:46:39;;;;;;;20.65;9.13;;;;;;;;;;10278488;28;20045;-57
2024/02/18 11:51:40;;;;;;;16.00;8.57;;;;;;;;;;10286490;28;20026;-56
2024/02/18 11:56:41;;;;;;;26.13;9.63;;;;;;;;;;10286035;28;20165;-57
2024/02/18 12:01:42;;;;;;;18.02;8.63;;;;;;;;;;10287478;28;20078;-63
2024/02/18 12:06:42;;;;;;;16.52;8.27;;;;;;;;;;10286274;28;20316;-60
2024/02/18 12:11:46;;;;;;;12.77;8.57;;;;;;;;;;10285093;28;20034;-57
2024/02/18 12:16:47;;;;;;;20.23;8.57;;;;;;;;;;10284976;28;20023;-56
2024/02/18 12:21:55;;;;;;;14.95;8.55;;;;;;;;;;10293025;28;20062;-56
2024/02/18 12:26:56;;;;;;;14.57;7.93;;;;;;;;;;10285015;28;20027;-58
2024/02/18 12:31:56;;;;;;;18.23;8.57;;;;;;;;;;10285370;28;20467;-57
2024/02/18 12:36:57;;;;;;;15.50;7.78;;;;;;;;;;10283831;28;20051;-56
2024/02/18 12:41:59;;;;;;;16.92;9.07;;;;;;;;;;10281047;28;20062;-62
2024/02/18 12:47:01;;;;;;;17.33;7.80;;;;;;;;;;10279224;28;20038;-58
2024/02/18 12:52:09;;;;;;;15.55;7.65;;;;;;;;;;10282901;28;20066;-58
2024/02/18 12:57:11;;;;;;;11.82;7.30;;;;;;;;;;10280538;28;20046;-59
2024/02/18 13:02:12;;;;;;;12.10;7.18;;;;;;;;;;10282312;28;20487;-63
2024/02/18 13:07:19;;;;;;;13.45;7.35;;;;;;;;;;10277930;28;20027;-58
2024/02/18 13:12:21;;;;;;;14.20;7.57;;;;;;;;;;10270100;28;20034;-64
2024/02/18 13:17:22;;;;;;;19.63;7.72;;;;;;;;;;10280340;28;20123;-56
2024/02/18 13:22:22;;;;;;;17.27;7.57;;;;;;;;;;10276770;28;20574;-57
2024/02/18 13:27:23;;;;;;;21.13;7.60;;;;;;;;;;10276442;28;20612;-58
2024/02/18 13:32:24;;;;;;;23.08;7.00;;;;;;;;;;10282049;28;20038;-59
2024/02/18 13:37:24;;;;;;;15.73;7.00;;;;;;;;;;10284280;28;20051;-58
2024/02/18 13:42:25;;;;;;;18.45;7.72;;;;;;;;;;10282006;28;20046;-61
2024/02/18 13:47:26;;;;;;;17.23;7.05;;;;;;;;;;10277340;28;20030;-58
2024/02/18 13:52:27;;;;;;;13.80;6.80;;;;;;;;;;10282419;28;20041;-67
2024/02/18 13:57:28;;;;;;;14.30;6.45;;;;;;;;;;10282493;28;20058;-58
2024/02/18 14:02:29;;;;;;;13.57;6.80;;;;;;;;;;10277031;28;20509;-58
2024/02/18 14:07:30;;;;;;;11.82;7.65;;;;;;;;;;10275006;28;20097;-58
2024/02/18 14:12:31;;;;;;;10.98;7.15;;;;;;;;;;10286074;28;20414;-58
2024/02/18 14:17:31;;;;;;;10.80;6.30;;;;;;;;;;10284243;28;20490;-58
2024/02/18 14:22:32;;;;;;;12.52;6.35;;;;;;;;;;10295242;28;20026;-58
2024/02/18 14:27:33;;;;;;;14.32;6.82;;;;;;;;;;10291580;28;20114;-58
2024/02/18 14:32:34;;;;;;;12.00;6.30;;;;;;;;;;10278864;28;20035;-58
2024/02/18 14:37:35;;;;;;;11.35;6.35;;;;;;;;;;10290764;28;20394;-58
2024/02/18 14:42:37;;;;;;;9.60;6.35;;;;;;;;;;10291241;28;20039;-58
2024/02/18 14:47:38;;;;;;;10.90;6.22;;;;;;;;;;10290779;28;20441;-58
2024/02/18 14:52:40;;;;;;;10.48;6.13;;;;;;;;;;10278261;28;20117;-58
2024/02/18 14:57:41;;;;;;;7.75;6.20;;;;;;;;;;10298539;28;20077;-58
2024/02/18 15:02:42;;;;;;;9.57;6.60;;;;;;;;;;10289046;28;20033;-58
2024/02/18 15:07:43;;;;;;;9.55;5.63;;;;;;;;;;10296478;28;20038;-58
2024/02/18 15:12:44;;;;;;;9.18;5.65;;;;;;;;;;10276680;28;20505;-58
2024/02/18 15:17:44;;;;;;;11.27;6.00;;;;;;;;;;10288922;28;20430;-58
2024/02/18 15:22:45;;;;;;;10.65;6.57;;;;;;;;;;10268692;28;20054;-55
2024/02/18 15:27:48;;;;;;;14.00;6.03;;;;;;;;;;10298228;28;20151;-55
2024/02/18 15:32:48;;;;;;;9.40;5.53;;;;;;;;;;10287048;28;20300;-54
2024/02/18 15:37:49;;;;;;;10.45;5.20;;;;;;;;;;10247726;28;20352;-54
2024/02/18 15:42:51;;;;;;;8.48;5.70;;;;;;;;;;10252810;28;20031;-54
2024/02/18 15:47:51;;;;;;;9.73;5.13;;;;;;;;;;10287329;28;20035;-56
2024/02/18 15:52:52;;;;;;;11.45;5.35;;;;;;;;;;10279266;28;20113;-57
2024/02/18 15:57:54;;;;;;;10.55;5.90;;;;;;;;;;10278721;28;20035;-57
2024/02/18 16:02:54;;;;;;;8.23;5.60;;;;;;;;;;10279384;28;20034;-56
2024/02/18 16:07:55;;;;;;;6.90;5.00;;;;;;;;;;10286940;28;20073;-57
2024/02/18 16:12:56;;;;;;;10.13;5.55;;;;;;;;;;10286561;28;20034;-56
2024/02/18 16:17:57;;;;;;;7.20;5.55;;;;;;;;;;10287130;28;20383;-57
2024/02/18 16:22:57;;;;;;;10.77;5.15;;;;;;;;;;10286573;28;20027;-56
2024/02/18 16:27:58;;;;;;;8.60;5.82;;;;;;;;;;10286173;28;20030;-54
2024/02/18 16:32:58;;;;;;;7.10;5.10;;;;;;;;;;10297664;28;20037;-55
2024/02/18 16:37:59;;;;;;;6.40;5.03;;;;;;;;;;10288192;28;20055;-55
2024/02/18 16:43:00;;;;;;;6.18;4.93;;;;;;;;;;10277691;28;20074;-58
2024/02/18 16:48:00;;;;;;;7.78;5.90;;;;;;;;;;10283702;28;20034;-58
2024/02/18 16:53:01;;;;;;;9.93;5.70;;;;;;;;;;10285629;28;20034;-58
2024/02/18 16:58:02;;;;;;;9.27;5.20;;;;;;;;;;10285504;28;20027;-65
2024/02/18 17:03:03;;;;;;;7.28;5.22;;;;;;;;;;11105174;23;20058;-65
2024/02/18 17:08:04;;;;;;;6.72;4.20;;;;;;;;;;10309724;28;20104;-66
2024/02/18 17:13:07;;;;;;;9.60;5.25;;;;;;;;;;10324775;28;20026;-65
2024/02/18 17:18:08;;;;;;;6.75;4.60;;;;;;;;;;10326086;28;20030;-66
2024/02/18 17:23:11;;;;;;;6.25;5.05;;;;;;;;;;10328380;28;20387;-65
2024/02/18 17:28:12;;;;;;;6.30;4.80;;;;;;;;;;10325297;28;20027;-66
2024/02/18 17:33:12;;;;;;;7.00;4.72;;;;;;;;;;10324904;28;20026;-65
2024/02/18 17:38:13;;;;;;;6.72;4.93;;;;;;;;;;10323607;28;20034;-66
2024/02/18 17:43:14;;;;;;;6.82;4.75;;;;;;;;;;10324244;28;20034;-66
2024/02/18 17:48:16;;;;;;;12.15;4.93;;;;;;;;;;10321931;28;20061;-66
2024/02/18 17:53:17;;;;;;;10.50;4.63;;;;;;;;;;10320446;28;20592;-66
2024/02/18 17:58:17;;;;;;;5.75;4.43;;;;;;;;;;10321533;28;20034;-65
2024/02/18 18:03:18;;;;;;;12.00;5.05;;;;;;;;;;10329928;28;20053;-64
2024/02/18 18:08:18;;;;;;;10.95;4.88;;;;;;;;;;10321014;28;20030;-65
2024/02/18 18:13:19;;;;;;;8.15;4.53;;;;;;;;;;10317165;28;20026;-65
2024/02/18 18:18:20;;;;;;;9.18;5.10;;;;;;;;;;10331402;28;20026;-65
2024/02/18 18:23:21;;;;;;;11.52;4.95;;;;;;;;;;10329874;28;20042;-66
2024/02/18 18:28:21;;;;;;;12.43;5.63;;;;;;;;;;10323324;28;20026;-65
2024/02/18 18:33:22;;;;;;;13.68;5.15;;;;;;;;;;10316449;28;20023;-66
2024/02/18 18:38:25;;;;;;;14.82;5.10;;;;;;;;;;10312883;28;20034;-65
2024/02/18 18:43:25;;;;;;;14.82;5.03;;;;;;;;;;10324254;28;20031;-65
2024/02/18 18:48:28;;;;;;;10.10;4.95;;;;;;;;;;10327246;28;20018;-65
2024/02/18 18:53:29;;;;;;;11.75;5.40;;;;;;;;;;10317588;28;20481;-65
2024/02/18 18:58:30;;;;;;;11.55;4.93;;;;;;;;;;10339563;28;20034;-65
2024/02/18 19:03:30;;;;;;;7.70;4.65;;;;;;;;;;10363924;28;20077;-65
2024/02/18 19:08:31;;;;;;;11.07;4.60;;;;;;;;;;10356621;28;20025;-65
2024/02/18 19:13:32;;;;;;;14.52;5.10;;;;;;;;;;10358399;28;20392;-65
2024/02/18 19:18:32;;;;;;;14.38;6.22;;;;;;;;;;10369408;28;20388;-65
2024/02/18 19:23:33;;;;;;;11.30;4.80;;;;;;;;;;10369281;28;20037;-65
2024/02/18 19:28:34;;;;;;;7.68;4.57;;;;;;;;;;10368834;28;20492;-65
2024/02/18 19:33:34;;;;;;;8.48;4.75;;;;;;;;;;10369270;28;20036;-65
2024/02/18 19:38:35;;;;;;;8.20;4.75;;;;;;;;;;10368525;28;20025;-65
2024/02/18 19:43:37;;;;;;;7.45;4.78;;;;;;;;;;10365081;28;20033;-65
2024/02/18 19:48:40;;;;;;;9.20;4.60;;;;;;;;;;10367459;28;20365;-65
2024/02/18 19:53:41;;;;;;;9.15;4.85;;;;;;;;;;10368110;28;20026;-65
2024/02/18 19:58:42;;;;;;;5.43;4.80;;;;;;;;;;10359658;28;20107;-65
2024/02/18 20:03:44;;;;;;;7.57;4.70;;;;;;;;;;10362754;28;20054;-65
2024/02/18 20:08:45;;;;;;;13.45;5.30;;;;;;;;;;10359738;28;20033;-66
2024/02/18 20:13:45;;;;;;;6.70;4.95;;;;;;;;;;10363480;28;20038;-62
2024/02/18 20:18:46;;;;;;;6.35;5.35;;;;;;;;;;10353433;28;20025;-63
2024/02/18 20:23:47;;;;;;;10.52;5.25;;;;;;;;;;10348263;28;20089;-63
2024/02/18 20:28:47;;;;;;;11.50;5.00;;;;;;;;;;10361614;28;20026;-62
2024/02/18 20:33:48;;;;;;;9.07;5.60;;;;;;;;;;10366151;28;20014;-63
2024/02/18 20:38:48;;;;;;;9.70;5.20;;;;;;;;;;10365468;28;20152;-63
2024/02/18 20:43:49;;;;;;;9.32;5.70;;;;;;;;;;10364149;28;20038;-62
2024/02/18 20:48:50;;;;;;;8.85;5.95;;;;;;;;;;10363439;28;20057;-63
2024/02/18 20:53:51;;;;;;;9.32;5.30;;;;;;;;;;10365238;28;20396;-63
2024/02/18 20:58:52;;;;;;;9.10;5.78;;;;;;;;;;10363941;28;20105;-63
2024/02/18 21:03:53;;;;;;;9.43;5.68;;;;;;;;;;10364762;28;20049;-63
2024/02/18 21:08:53;;;;;;;12.27;6.35;;;;;;;;;;10363459;28;20034;-63
2024/02/18 21:13:54;;;;;;;8.95;5.70;;;;;;;;;;10360664;28;20041;-63
2024/02/18 21:18:54;;;;;;;10.18;5.80;;;;;;;;;;10349572;28;20038;-62
2024/02/18 21:23:55;;;;;;;11.93;6.07;;;;;;;;;;10359460;28;20048;-63
2024/02/18 21:28:55;;;;;;;8.93;5.80;;;;;;;;;;10362757;28;20095;-64
2024/02/18 21:33:56;;;;;;;8.30;5.00;;;;;;;;;;10363466;28;20282;-63
2024/02/18 21:38:57;;;;;;;11.35;5.78;;;;;;;;;;10345313;28;20034;-63
2024/02/18 21:43:57;;;;;;;9.68;5.65;;;;;;;;;;10348345;28;20100;-63
2024/02/18 21:48:58;;;;;;;8.32;5.40;;;;;;;;;;10352511;28;20080;-63
2024/02/18 21:53:59;;;;;;;9.05;5.57;;;;;;;;;;10359801;28;20048;-64
2024/02/18 21:58:59;;;;;;;7.97;5.13;;;;;;;;;;10357293;28;20026;-63
2024/02/18 22:04:00;;;;;;;11.43;5.70;;;;;;;;;;10361198;28;20057;-64
2024/02/18 22:09:01;;;;;;;11.73;5.30;;;;;;;;;;10361307;28;20033;-63
2024/02/18 22:14:02;;;;;;;6.28;5.00;;;;;;;;;;10361258;28;20469;-64
2024/02/18 22:19:02;;;;;;;11.80;5.55;;;;;;;;;;10355134;28;20101;-63
2024/02/18 22:24:03;;;;;;;10.48;5.22;;;;;;;;;;10353414;28;20393;-64
2024/02/18 22:29:07;;;;;;;7.22;4.78;;;;;;;;;;10362350;28;20374;-63
2024/02/18 22:34:07;;;;;;;7.82;5.32;;;;;;;;;;10360014;28;20026;-64
2024/02/18 22:39:08;;;;;;;6.45;5.00;;;;;;;;;;10360394;28;20022;-64
2024/02/18 22:44:09;;;;;;;7.95;5.15;;;;;;;;;;10367118;28;20272;-64
2024/02/18 22:49:09;;;;;;;11.82;5.10;;;;;;;;;;10370205;28;20033;-64
2024/02/18 22:54:10;;;;;;;7.97;5.10;;;;;;;;;;10369979;28;20373;-64
2024/02/18 22:59:10;;;;;;;6.63;5.10;;;;;;;;;;10370717;28;20057;-64
2024/02/18 23:04:11;;;;;;;8.40;5.13;;;;;;;;;;10368176;28;20038;-64
2024/02/18 23:09:12;;;;;;;10.05;4.78;;;;;;;;;;10367143;28;20169;-64
2024/02/18 23:14:13;;;;;;;6.57;4.68;;;;;;;;;;10366177;28;20081;-64
2024/02/18 23:19:13;;;;;;;8.20;4.72;;;;;;;;;;10367024;28;20473;-63
2024/02/18 23:24:14;;;;;;;9.15;5.00;;;;;;;;;;10358821;28;20026;-64
2024/02/18 23:29:14;;;;;;;8.10;4.22;;;;;;;;;;10368811;28;20121;-64
2024/02/18 23:34:17;;;;;;;5.93;4.50;;;;;;;;;;10364694;28;20091;-62
2024/02/18 23:39:17;;;;;;;10.30;5.22;;;;;;;;;;10364669;28;20438;-64
2024/02/18 23:44:18;;;;;;;10.32;5.20;;;;;;;;;;10360204;28;20037;-62
2024/02/18 23:49:19;;;;;;;11.93;5.75;;;;;;;;;;10363035;28;20404;-62
2024/02/18 23:54:19;;;;;;;9.27;4.90;;;;;;;;;;10364306;28;20029;-62
2024/02/18 23:59:20;;;;;;;11.52;5.53;;;;;;;;;;10367332;28;20057;-61
